Time;durP1;ratioP1;P1;durP2;ratioP2;P2;SDS_P1;SDS_P2;PMS_P1;PMS_P2;Temp;Humidity;BMP_temperature;BMP_pressure;BME280_temperature;BME280_humidity;BME280_pressure;Samples;Min_cycle;Max_cycle;Signal;HPM_P1;HPM_P2
2021/07/31 00:01:08;;;;;;;11.00;9.02;;;20.90;80.00;;;;;;4976237;28;20481;-83
2021/07/31 00:03:37;;;;;;;12.10;9.65;;;20.90;80.20;;;;;;4976544;28;20538;-83
2021/07/31 00:06:05;;;;;;;16.58;10.75;;;20.80;80.70;;;;;;4976631;28;20031;-83
2021/07/31 00:08:32;;;;;;;12.02;9.82;;;20.80;81.10;;;;;;4977683;28;20153;-83
2021/07/31 00:10:58;;;;;;;15.00;9.70;;;20.70;80.80;;;;;;4976593;28;20441;-83
2021/07/31 00:13:24;;;;;;;12.95;9.75;;;20.70;80.80;;;;;;4976857;28;20401;-83
2021/07/31 00:15:51;;;;;;;13.13;10.25;;;20.70;81.30;;;;;;4977501;28;20031;-83
2021/07/31 00:18:17;;;;;;;12.65;9.60;;;20.60;81.30;;;;;;4976043;28;20766;-83
2021/07/31 00:20:42;;;;;;;13.23;9.95;;;20.60;81.30;;;;;;4977521;28;20029;-85
2021/07/31 00:23:09;;;;;;;14.05;10.23;;;20.60;81.90;;;;;;4940923;28;20035;-82
2021/07/31 00:25:35;;;;;;;12.73;10.27;;;20.50;81.90;;;;;;4956784;29;20059;-83
2021/07/31 00:28:01;;;;;;;13.13;9.77;;;20.50;81.90;;;;;;4966873;28;20359;-83
2021/07/31 00:30:28;;;;;;;14.93;11.10;;;20.50;82.00;;;;;;4960155;28;20035;-83
2021/07/31 00:32:55;;;;;;;14.02;10.63;;;20.40;82.40;;;;;;4976246;28;20082;-83
2021/07/31 00:35:21;;;;;;;14.07;10.10;;;20.40;82.70;;;;;;4977239;28;20023;-82
2021/07/31 00:37:47;;;;;;;13.60;10.43;;;20.40;82.80;;;;;;4959770;28;20054;-83
2021/07/31 00:40:13;;;;;;;14.23;10.45;;;20.30;83.00;;;;;;4976829;28;20445;-83
2021/07/31 00:42:42;;;;;;;13.90;10.07;;;20.30;83.10;;;;;;4977037;28;20093;-83
2021/07/31 00:45:12;;;;;;;14.00;10.60;;;20.30;83.30;;;;;;4976867;28;20023;-83
2021/07/31 00:47:42;;;;;;;13.50;9.93;;;20.30;83.60;;;;;;4960083;28;20410;-83
2021/07/31 00:50:08;;;;;;;13.88;9.65;;;20.30;83.60;;;;;;4959614;28;20051;-83
2021/07/31 00:52:36;;;;;;;13.50;9.65;;;20.30;83.80;;;;;;4975514;28;20078;-83
2021/07/31 00:55:02;;;;;;;16.63;10.70;;;20.20;84.10;;;;;;4959461;28;20039;-83
2021/07/31 00:57:29;;;;;;;14.88;11.23;;;20.20;84.50;;;;;;4976660;28;20417;-83
2021/07/31 00:59:54;;;;;;;13.85;9.88;;;20.20;85.10;;;;;;4959631;28;20048;-83
2021/07/31 01:02:20;;;;;;;15.82;10.60;;;20.20;84.70;;;;;;4975496;28;20580;-83
2021/07/31 01:04:47;;;;;;;13.38;10.15;;;20.10;84.80;;;;;;4976462;28;20045;-83
2021/07/31 01:07:13;;;;;;;12.95;10.25;;;20.10;85.00;;;;;;4967214;28;20023;-84
2021/07/31 01:09:39;;;;;;;13.10;10.15;;;20.10;85.10;;;;;;4956859;28;20031;-84
2021/07/31 01:12:05;;;;;;;13.18;9.50;;;20.10;85.50;;;;;;4956827;29;20031;-84
2021/07/31 01:14:31;;;;;;;13.30;10.15;;;20.10;85.40;;;;;;4956715;28;20086;-84
2021/07/31 01:16:57;;;;;;;13.18;9.77;;;20.10;85.50;;;;;;4957145;28;20371;-84
2021/07/31 01:19:22;;;;;;;12.30;9.82;;;20.10;85.70;;;;;;4955684;29;20029;-83
2021/07/31 01:21:48;;;;;;;12.93;9.43;;;20.00;85.60;;;;;;4956950;29;20059;-83
2021/07/31 01:24:15;;;;;;;13.57;9.63;;;20.10;85.70;;;;;;4956492;28;20126;-83
2021/07/31 01:26:46;;;;;;;22.00;10.52;;;20.00;85.90;;;;;;4956858;29;20537;-84
2021/07/31 01:29:15;;;;;;;14.50;10.18;;;20.00;86.20;;;;;;4956275;28;20026;-84
2021/07/31 01:31:42;;;;;;;12.35;9.82;;;20.00;86.20;;;;;;4939471;29;20035;-83
2021/07/31 01:34:08;;;;;;;13.30;9.30;;;20.00;86.30;;;;;;4939111;29;20098;-84
2021/07/31 01:36:34;;;;;;;12.88;9.60;;;20.00;86.20;;;;;;4945081;28;20031;-84
2021/07/31 01:39:01;;;;;;;12.35;9.50;;;19.90;86.20;;;;;;4975865;28;20109;-83
2021/07/31 01:41:27;;;;;;;11.30;8.98;;;19.90;86.40;;;;;;4958415;28;20117;-83
2021/07/31 01:43:54;;;;;;;11.35;8.75;;;19.90;86.40;;;;;;4975845;28;20030;-83
2021/07/31 01:46:22;;;;;;;11.82;9.00;;;19.90;86.60;;;;;;4975693;28;20486;-83
2021/07/31 01:48:48;;;;;;;11.48;8.80;;;19.80;86.70;;;;;;4958293;28;20114;-84
2021/07/31 01:51:14;;;;;;;11.18;8.32;;;19.80;86.60;;;;;;4958227;28;20087;-84
2021/07/31 01:53:40;;;;;;;11.60;7.90;;;19.80;86.60;;;;;;4983273;28;20133;-84
2021/07/31 01:56:06;;;;;;;11.88;8.50;;;19.70;86.60;;;;;;4975556;28;20053;-84
2021/07/31 01:58:32;;;;;;;12.52;8.40;;;19.70;86.90;;;;;;4958500;28;20022;-84
2021/07/31 02:00:58;;;;;;;12.35;9.63;;;19.70;87.10;;;;;;4958437;28;20417;-83
2021/07/31 02:03:24;;;;;;;12.02;9.10;;;19.70;87.40;;;;;;4958240;28;20366;-83
2021/07/31 02:05:50;;;;;;;11.82;9.55;;;19.70;87.60;;;;;;4975733;28;20034;-83
2021/07/31 02:08:16;;;;;;;11.13;9.23;;;19.60;87.60;;;;;;4958626;28;20050;-83
2021/07/31 02:10:43;;;;;;;10.95;8.75;;;19.60;88.00;;;;;;4958074;28;20030;-82
2021/07/31 02:13:09;;;;;;;11.65;9.13;;;19.60;87.80;;;;;;4958287;28;20038;-83
2021/07/31 02:15:42;;;;;;;10.98;8.23;;;19.50;88.00;;;;;;4975675;28;20026;-83
2021/07/31 02:18:09;;;;;;;12.43;9.23;;;19.40;88.10;;;;;;4958299;28;20082;-84
2021/07/31 02:20:35;;;;;;;10.63;8.27;;;19.40;88.60;;;;;;4975435;28;20022;-82
2021/07/31 02:23:01;;;;;;;12.52;8.38;;;19.40;88.60;;;;;;4975514;28;20019;-82
2021/07/31 02:25:26;;;;;;;10.73;8.32;;;19.40;88.80;;;;;;4958190;28;20389;-83
2021/07/31 02:27:52;;;;;;;10.57;8.35;;;19.40;88.70;;;;;;4958058;28;20113;-82
2021/07/31 02:30:18;;;;;;;10.57;8.23;;;19.40;88.90;;;;;;4974794;28;20165;-82
2021/07/31 02:32:43;;;;;;;11.38;8.38;;;19.40;89.00;;;;;;4957788;28;20034;-82
2021/07/31 02:35:10;;;;;;;9.85;8.05;;;19.40;89.30;;;;;;4975423;28;20045;-83
2021/07/31 02:37:36;;;;;;;10.63;7.93;;;19.40;89.30;;;;;;4957774;28;20363;-82
2021/07/31 02:40:03;;;;;;;11.60;8.02;;;19.40;89.10;;;;;;4957837;28;20023;-82
2021/07/31 02:42:29;;;;;;;11.45;8.52;;;19.40;89.00;;;;;;4957513;28;20536;-82
2021/07/31 02:44:54;;;;;;;11.93;8.90;;;19.40;89.00;;;;;;4975077;28;20035;-82
2021/07/31 02:47:20;;;;;;;11.55;9.25;;;19.40;89.20;;;;;;4957605;28;20059;-82
2021/07/31 02:49:46;;;;;;;13.48;10.23;;;19.40;89.40;;;;;;4957566;28;20065;-83
2021/07/31 02:52:12;;;;;;;13.27;9.45;;;19.40;89.60;;;;;;4974879;28;20031;-83
2021/07/31 02:54:37;;;;;;;11.10;8.77;;;19.40;89.50;;;;;;4957186;28;20105;-83
2021/07/31 02:57:03;;;;;;;10.70;8.65;;;19.40;89.50;;;;;;4974632;28;20062;-83
2021/07/31 02:59:29;;;;;;;11.65;9.25;;;19.40;89.70;;;;;;4974907;28;20469;-83
2021/07/31 03:01:55;;;;;;;11.07;8.73;;;19.40;89.80;;;;;;4975367;28;20073;-83
2021/07/31 03:04:20;;;;;;;12.60;8.63;;;19.40;89.90;;;;;;4956932;28;20027;-83
2021/07/31 03:06:46;;;;;;;11.45;8.50;;;19.40;90.00;;;;;;4957475;28;20027;-84
2021/07/31 03:09:12;;;;;;;11.60;8.73;;;19.40;90.00;;;;;;4974944;28;20070;-83
2021/07/31 03:11:37;;;;;;;13.32;9.45;;;19.40;89.70;;;;;;4974923;28;20389;-83
2021/07/31 03:14:04;;;;;;;12.52;9.32;;;19.50;89.90;;;;;;4957961;28;20035;-84
2021/07/31 03:16:30;;;;;;;11.88;9.23;;;19.50;89.80;;;;;;4957410;28;20406;-85
2021/07/31 03:18:56;;;;;;;10.50;8.88;;;19.50;89.60;;;;;;4957076;28;20027;-84
2021/07/31 03:21:21;;;;;;;13.23;9.55;;;19.50;89.70;;;;;;4974698;28;20031;-83
2021/07/31 03:23:47;;;;;;;11.00;9.40;;;19.50;89.80;;;;;;4974687;28;20034;-83
2021/07/31 03:26:12;;;;;;;10.38;8.52;;;19.50;90.00;;;;;;4957045;28;20023;-83
2021/07/31 03:28:38;;;;;;;11.13;8.63;;;19.50;90.00;;;;;;4957452;28;20117;-83
2021/07/31 03:31:04;;;;;;;10.60;8.00;;;19.50;89.90;;;;;;4957512;28;20130;-84
2021/07/31 03:33:29;;;;;;;10.15;7.30;;;19.60;89.80;;;;;;4957644;28;20031;-84
2021/07/31 03:35:55;;;;;;;9.35;7.20;;;19.60;89.60;;;;;;4957127;28;20113;-83
2021/07/31 03:38:22;;;;;;;8.30;6.60;;;19.60;89.30;;;;;;4974280;28;20027;-83
2021/07/31 03:40:47;;;;;;;9.13;7.40;;;19.70;89.00;;;;;;4956972;28;20031;-83
2021/07/31 03:43:14;;;;;;;8.23;6.88;;;19.80;88.80;;;;;;4993147;28;20141;-84
2021/07/31 03:45:40;;;;;;;9.52;7.55;;;19.80;88.50;;;;;;4993612;28;20022;-85
2021/07/31 03:48:05;;;;;;;9.38;7.53;;;19.80;88.30;;;;;;4976330;28;20034;-83
2021/07/31 03:50:31;;;;;;;10.00;7.78;;;19.90;88.10;;;;;;4976285;28;20031;-83
2021/07/31 03:52:57;;;;;;;10.82;7.80;;;20.00;87.90;;;;;;4979110;28;20058;-84
2021/07/31 03:55:23;;;;;;;10.45;7.57;;;20.00;87.70;;;;;;4996867;28;20365;-85
2021/07/31 03:57:49;;;;;;;12.18;7.70;;;20.10;87.50;;;;;;4977209;28;20068;-84
2021/07/31 04:00:15;;;;;;;9.98;7.55;;;20.10;87.60;;;;;;4970801;28;20109;-82
2021/07/31 04:02:41;;;;;;;8.38;7.05;;;20.20;87.60;;;;;;4977220;28;20081;-82
2021/07/31 04:05:07;;;;;;;9.00;7.00;;;20.30;87.30;;;;;;4960427;28;20473;-82
2021/07/31 04:07:33;;;;;;;8.90;7.10;;;20.30;86.90;;;;;;4960482;28;20105;-83
2021/07/31 04:09:59;;;;;;;10.55;7.78;;;20.40;86.50;;;;;;4960016;28;20071;-84
2021/07/31 04:12:24;;;;;;;10.50;7.80;;;20.50;86.10;;;;;;4977592;28;20035;-83
2021/07/31 04:14:50;;;;;;;8.52;7.28;;;20.60;85.90;;;;;;4959923;28;20113;-83
2021/07/31 04:17:16;;;;;;;10.88;8.15;;;20.70;85.70;;;;;;4977205;28;20054;-84
2021/07/31 04:19:42;;;;;;;9.13;7.55;;;20.80;85.50;;;;;;4977271;28;20410;-84
2021/07/31 04:22:08;;;;;;;9.32;7.40;;;20.80;85.40;;;;;;4959928;28;20026;-84
2021/07/31 04:24:36;;;;;;;8.75;7.50;;;20.90;85.30;;;;;;4960060;28;20097;-79
2021/07/31 04:27:02;;;;;;;9.73;7.82;;;21.00;85.10;;;;;;4960612;28;20062;-81
2021/07/31 04:29:28;;;;;;;10.55;8.25;;;21.00;84.80;;;;;;4975729;28;20397;-84
2021/07/31 04:31:54;;;;;;;11.95;8.73;;;21.10;84.40;;;;;;4976731;28;20023;-82
2021/07/31 04:34:19;;;;;;;10.45;7.88;;;21.20;84.20;;;;;;4977483;28;20031;-83
2021/07/31 04:36:45;;;;;;;9.98;8.00;;;21.30;84.10;;;;;;4977250;28;20031;-84
2021/07/31 04:39:11;;;;;;;9.15;7.30;;;21.30;83.80;;;;;;4959820;28;20489;-84
2021/07/31 04:41:37;;;;;;;8.63;6.72;;;21.40;83.70;;;;;;4959769;28;20462;-83
2021/07/31 04:44:03;;;;;;;8.45;6.45;;;21.40;83.70;;;;;;4959836;28;20489;-82
2021/07/31 04:46:29;;;;;;;8.43;6.25;;;21.50;83.70;;;;;;4966344;28;20082;-82
2021/07/31 04:48:54;;;;;;;7.95;5.97;;;21.60;83.50;;;;;;4987291;28;20466;-83
2021/07/31 04:51:20;;;;;;;7.72;5.72;;;21.70;83.30;;;;;;4966786;28;20112;-83
2021/07/31 04:53:47;;;;;;;7.65;5.80;;;21.80;82.90;;;;;;4976936;28;20058;-83
2021/07/31 04:56:12;;;;;;;5.97;5.20;;;21.90;82.60;;;;;;4976691;28;20035;-83
2021/07/31 04:58:39;;;;;;;8.07;5.60;;;22.00;82.20;;;;;;4976024;28;20027;-83
2021/07/31 05:01:04;;;;;;;7.03;5.70;;;22.10;81.80;;;;;;4992085;28;20026;-83
2021/07/31 05:03:30;;;;;;;9.70;5.65;;;22.30;81.50;;;;;;4994901;28;20062;-83
2021/07/31 05:05:57;;;;;;;7.72;5.40;;;22.40;81.10;;;;;;4978766;28;20095;-83
2021/07/31 05:08:22;;;;;;;5.80;5.10;;;22.50;80.80;;;;;;4978487;28;20027;-84
2021/07/31 05:10:51;;;;;;;6.90;5.28;;;22.60;80.60;;;;;;4978403;28;20098;-84
2021/07/31 05:13:17;;;;;;;5.63;4.70;;;22.70;80.30;;;;;;4978476;28;20432;-83
2021/07/31 05:15:44;;;;;;;7.72;4.95;;;22.80;79.90;;;;;;4978761;28;20031;-84
2021/07/31 05:18:11;;;;;;;6.50;5.30;;;23.00;79.60;;;;;;4978333;28;20027;-83
2021/07/31 05:20:41;;;;;;;6.68;5.13;;;23.10;79.40;;;;;;4995579;28;20031;-83
2021/07/31 05:23:07;;;;;;;6.63;5.05;;;23.20;79.10;;;;;;4995636;28;20535;-83
2021/07/31 05:25:33;;;;;;;6.57;4.78;;;23.30;78.60;;;;;;4995731;28;20068;-83
2021/07/31 05:27:59;;;;;;;5.75;4.80;;;23.50;78.40;;;;;;4978469;28;20048;-83
2021/07/31 05:30:25;;;;;;;5.80;4.95;;;23.60;78.00;;;;;;4977968;28;20129;-82
2021/07/31 05:32:51;;;;;;;6.60;4.70;;;23.70;77.60;;;;;;4995258;28;20026;-83
2021/07/31 05:35:17;;;;;;;5.60;4.63;;;23.80;77.10;;;;;;4978003;28;20532;-84
2021/07/31 05:37:43;;;;;;;5.55;4.63;;;24.00;76.80;;;;;;4995270;28;20023;-83
2021/07/31 05:40:09;;;;;;;5.05;4.13;;;24.10;76.20;;;;;;4977931;28;20029;-83
2021/07/31 05:42:35;;;;;;;5.63;4.55;;;24.20;75.80;;;;;;4977760;28;20038;-83
2021/07/31 05:45:03;;;;;;;5.25;4.38;;;24.30;75.50;;;;;;4977784;28;20385;-83
2021/07/31 05:47:29;;;;;;;5.07;4.35;;;24.50;75.10;;;;;;4977942;28;20033;-84
2021/07/31 05:49:56;;;;;;;6.15;4.88;;;24.60;74.70;;;;;;4979912;28;20093;-83
2021/07/31 05:52:28;;;;;;;6.32;5.32;;;24.70;74.20;;;;;;4995478;28;20037;-83
2021/07/31 05:54:56;;;;;;;6.85;5.55;;;24.90;73.70;;;;;;4978237;28;20058;-83
2021/07/31 05:57:22;;;;;;;5.88;4.93;;;25.00;73.00;;;;;;4962769;28;20134;-84
2021/07/31 05:59:48;;;;;;;6.43;4.88;;;25.10;72.80;;;;;;4999069;28;20022;-82
2021/07/31 06:02:14;;;;;;;5.38;4.47;;;25.10;72.40;;;;;;4978368;28;20023;-84
2021/07/31 06:04:41;;;;;;;6.10;5.13;;;25.30;72.20;;;;;;4977813;28;20511;-84
2021/07/31 06:07:07;;;;;;;5.93;4.63;;;25.30;71.90;;;;;;4977149;28;20114;-83
2021/07/31 06:09:34;;;;;;;6.60;4.97;;;25.50;71.70;;;;;;4977097;28;20026;-84
2021/07/31 06:12:01;;;;;;;5.70;4.88;;;25.60;71.10;;;;;;4979137;28;20066;-83
2021/07/31 06:14:27;;;;;;;5.63;5.00;;;25.70;70.70;;;;;;4967635;28;20092;-83
2021/07/31 06:16:53;;;;;;;8.48;5.82;;;25.80;70.40;;;;;;4967788;28;20023;-84
2021/07/31 06:19:20;;;;;;;6.18;5.15;;;25.90;69.60;;;;;;4976104;28;20027;-82
2021/07/31 06:21:46;;;;;;;6.10;5.07;;;26.00;69.30;;;;;;4958259;28;20101;-83
2021/07/31 06:24:11;;;;;;;5.78;4.65;;;26.00;68.90;;;;;;4974616;28;20470;-84
2021/07/31 06:26:37;;;;;;;6.60;5.70;;;26.20;69.00;;;;;;4956138;28;20031;-83
2021/07/31 06:29:03;;;;;;;7.80;5.80;;;26.30;68.50;;;;;;4956187;28;20378;-84
2021/07/31 06:31:30;;;;;;;6.20;5.40;;;26.40;68.20;;;;;;4956241;28;20661;-84
2021/07/31 06:33:57;;;;;;;6.90;5.63;;;26.50;68.20;;;;;;4956405;28;20085;-85
2021/07/31 06:36:22;;;;;;;7.45;5.30;;;26.50;68.00;;;;;;4956226;28;20370;-84
2021/07/31 06:38:48;;;;;;;6.95;5.50;;;26.60;67.90;;;;;;4974108;28;20095;-84
2021/07/31 06:41:14;;;;;;;6.32;5.43;;;26.70;67.70;;;;;;4975113;28;20429;-84
2021/07/31 06:43:39;;;;;;;6.78;5.60;;;26.80;67.70;;;;;;4957571;28;20326;-83
2021/07/31 06:46:10;;;;;;;5.50;4.90;;;26.90;67.20;;;;;;4974998;28;20177;-84
2021/07/31 06:48:35;;;;;;;6.03;4.88;;;27.00;66.90;;;;;;4957342;28;20035;-83
2021/07/31 06:51:01;;;;;;;6.28;5.10;;;27.00;66.60;;;;;;4957376;28;20027;-83
2021/07/31 06:53:27;;;;;;;6.20;5.20;;;27.10;66.50;;;;;;4957437;28;20315;-84
2021/07/31 06:55:53;;;;;;;5.88;4.97;;;27.20;66.20;;;;;;4957029;28;20031;-84
2021/07/31 06:58:18;;;;;;;5.10;4.47;;;27.30;65.70;;;;;;4957296;28;20061;-84
2021/07/31 07:00:44;;;;;;;5.72;5.00;;;27.40;65.80;;;;;;4957507;28;20027;-84
2021/07/31 07:03:10;;;;;;;5.78;4.82;;;27.60;65.50;;;;;;4957411;28;20027;-84
2021/07/31 07:05:35;;;;;;;6.25;5.57;;;27.70;65.10;;;;;;4975083;28;20081;-84
2021/07/31 07:08:01;;;;;;;6.05;5.45;;;27.80;64.60;;;;;;4957373;28;20026;-84
2021/07/31 07:10:28;;;;;;;5.50;4.90;;;27.90;64.60;;;;;;4975051;28;20031;-85
2021/07/31 07:12:54;;;;;;;6.65;5.60;;;28.00;64.20;;;;;;4957329;28;20113;-84
2021/07/31 07:15:19;;;;;;;6.32;5.35;;;28.10;63.40;;;;;;4956982;28;20485;-84
2021/07/31 07:17:45;;;;;;;6.15;5.20;;;28.20;63.20;;;;;;4957275;28;20030;-84
2021/07/31 07:20:12;;;;;;;6.43;5.10;;;28.30;62.90;;;;;;4974301;28;20035;-83
2021/07/31 07:22:38;;;;;;;7.78;4.95;;;28.40;62.90;;;;;;4956956;28;20034;-83
2021/07/31 07:25:04;;;;;;;8.68;4.95;;;28.50;62.50;;;;;;4974549;28;20043;-84
2021/07/31 07:27:30;;;;;;;4.97;4.43;;;28.60;62.30;;;;;;4958901;28;20027;-84
2021/07/31 07:30:04;;;;;;;5.43;4.85;;;28.80;61.90;;;;;;4960464;28;20027;-85
2021/07/31 07:32:30;;;;;;;5.30;4.60;;;28.80;61.20;;;;;;4956242;28;20076;-84
2021/07/31 07:34:56;;;;;;;5.72;4.72;;;28.90;60.40;;;;;;4960505;28;20470;-85
2021/07/31 07:37:21;;;;;;;4.55;4.00;;;29.00;60.30;;;;;;4978265;28;20085;-85
2021/07/31 07:39:47;;;;;;;4.97;4.05;;;29.10;59.20;;;;;;4961300;28;20027;-85
2021/07/31 07:42:13;;;;;;;5.38;4.35;;;29.10;59.10;;;;;;4960838;28;20450;-84
2021/07/31 07:44:38;;;;;;;6.07;4.28;;;29.20;58.50;;;;;;4959812;28;20058;-85
2021/07/31 07:47:07;;;;;;;8.15;3.90;;;29.30;58.40;;;;;;4944260;28;20031;-84
2021/07/31 07:49:33;;;;;;;4.78;3.92;;;29.30;58.00;;;;;;4945001;28;20027;-83
2021/07/31 07:51:59;;;;;;;5.18;3.60;;;29.40;57.20;;;;;;4944129;28;20031;-84
2021/07/31 07:54:24;;;;;;;4.65;3.22;;;29.50;57.60;;;;;;4978178;28;20508;-85
2021/07/31 07:56:50;;;;;;;4.70;3.90;;;29.60;57.90;;;;;;4960416;28;20532;-85
2021/07/31 07:59:16;;;;;;;4.53;3.70;;;29.80;57.70;;;;;;4978782;28;20030;-84
2021/07/31 08:01:41;;;;;;;4.28;3.63;;;29.90;57.20;;;;;;4961379;28;20027;-83
2021/07/31 08:04:07;;;;;;;4.10;3.55;;;30.00;56.30;;;;;;4960482;28;20151;-85
2021/07/31 08:06:33;;;;;;;4.32;3.10;;;30.00;55.70;;;;;;4959845;28;20026;-85
2021/07/31 08:08:58;;;;;;;3.60;2.95;;;30.00;55.90;;;;;;4983743;28;20057;-85
2021/07/31 08:11:24;;;;;;;3.50;3.17;;;30.00;56.00;;;;;;4991086;28;20030;-85
2021/07/31 08:13:50;;;;;;;3.67;3.25;;;30.00;56.10;;;;;;4975800;28;20033;-85
2021/07/31 08:16:15;;;;;;;4.10;3.20;;;30.00;56.50;;;;;;4966168;28;20027;-85
2021/07/31 08:18:44;;;;;;;3.25;2.90;;;30.00;57.00;;;;;;4960194;28;20030;-84
2021/07/31 08:21:10;;;;;;;5.20;2.47;;;30.10;56.70;;;;;;4960635;28;20035;-86
2021/07/31 08:23:35;;;;;;;2.97;2.67;;;30.30;57.50;;;;;;4983366;28;20121;-86
2021/07/31 08:26:03;;;;;;;3.28;2.97;;;30.80;58.10;;;;;;4977552;28;20058;-85
2021/07/31 08:28:32;;;;;;;4.20;2.92;;;31.40;58.30;;;;;;4977301;28;20019;-84
2021/07/31 08:30:59;;;;;;;3.05;2.75;;;32.00;57.50;;;;;;4989509;28;20085;-82
2021/07/31 08:33:28;;;;;;;3.88;2.78;;;32.40;56.10;;;;;;4978572;28;20073;-92
2021/07/31 08:35:58;;;;;;;4.97;3.10;;;32.60;55.60;;;;;;4969520;28;20032;-89
2021/07/31 08:38:24;;;;;;;5.13;2.95;;;32.80;54.50;;;;;;4968563;28;20125;-88
2021/07/31 08:40:50;;;;;;;3.20;2.90;;;32.90;54.30;;;;;;4964860;28;20534;-86
2021/07/31 08:43:16;;;;;;;3.85;2.75;;;33.10;54.00;;;;;;4984361;28;20101;-86
2021/07/31 08:45:43;;;;;;;3.15;2.75;;;33.10;53.10;;;;;;4981427;28;20031;-86
2021/07/31 08:48:10;;;;;;;3.90;2.70;;;33.00;52.50;;;;;;4969650;28;20477;-85
2021/07/31 08:50:37;;;;;;;3.50;3.10;;;32.90;52.20;;;;;;4972244;28;20065;-86
2021/07/31 08:53:03;;;;;;;3.45;3.15;;;32.90;52.70;;;;;;4959039;28;20133;-85
2021/07/31 08:55:29;;;;;;;3.72;3.10;;;33.10;52.40;;;;;;4937579;29;20039;-85
2021/07/31 08:57:55;;;;;;;4.95;3.25;;;33.50;52.20;;;;;;4961376;28;20031;-84
2021/07/31 09:00:20;;;;;;;3.38;3.08;;;34.00;51.60;;;;;;4954939;29;20023;-84
2021/07/31 09:02:47;;;;;;;3.97;3.35;;;34.50;50.90;;;;;;4974130;28;20038;-85
2021/07/31 09:05:41;;;;;;;5.80;3.97;;;34.90;50.40;;;;;;4956783;28;20442;-85
2021/07/31 09:08:07;;;;;;;3.85;3.45;;;35.40;46.20;;;;;;4964561;28;20081;-86
2021/07/31 09:10:38;;;;;;;3.45;3.00;;;35.80;49.10;;;;;;4956739;28;20122;-86
2021/07/31 09:13:09;;;;;;;4.05;3.65;;;36.20;48.00;;;;;;4956119;28;20077;-86
2021/07/31 09:15:36;;;;;;;3.67;3.38;;;36.40;47.50;;;;;;4956852;28;20043;-87
2021/07/31 09:18:42;;;;;;;3.55;3.20;;;36.70;46.80;;;;;;4956513;28;20030;-86
2021/07/31 09:21:19;;;;;;;3.85;3.47;;;37.00;42.90;;;;;;4972716;28;20035;-87
2021/07/31 09:23:45;;;;;;;5.90;4.00;;;37.10;44.50;;;;;;4975780;28;20031;-88
2021/07/31 09:26:13;;;;;;;7.07;6.43;;;37.00;44.60;;;;;;4975790;28;20038;-88
2021/07/31 09:28:42;;;;;;;5.00;4.50;;;36.90;44.20;;;;;;4962146;28;20030;-88
2021/07/31 09:31:27;;;;;;;;;;;;;;;;;;;;;
2021/07/31 09:33:55;;;;;;;3.70;3.30;;;37.00;44.40;;;;;;4978411;28;20038;-90
2021/07/31 09:36:22;;;;;;;;;;;37.30;44.40;;;;;;4990768;28;20039;-89
2021/07/31 09:38:50;;;;;;;3.78;3.22;;;37.40;37.10;;;;;;4979501;28;19902;-94
2021/07/31 09:41:33;;;;;;;3.50;3.20;;;37.60;43.20;;;;;;4979115;28;20033;-92
2021/07/31 09:44:12;;;;;;;5.18;3.10;;;38.00;39.60;;;;;;4967135;28;20477;-94
2021/07/31 09:46:48;;;;;;;;;;;38.30;40.60;;;;;;4976747;28;20051;-93
2021/07/31 09:49:19;;;;;;;4.15;3.22;;;38.00;37.40;;;;;;4978630;28;19914;-93
2021/07/31 09:51:52;;;;;;;3.40;3.03;;;37.70;41.50;;;;;;4982429;28;20034;-94
2021/07/31 09:54:21;;;;;;;4.80;4.15;;;37.20;40.60;;;;;;4976254;28;20058;-92
2021/07/31 09:56:51;;;;;;;4.95;4.45;;;36.60;41.10;;;;;;4975194;28;20478;-91
2021/07/31 09:59:21;;;;;;;5.10;3.90;;;36.40;42.00;;;;;;4968936;28;20035;-88
2021/07/31 10:02:00;;;;;;;4.60;3.33;;;36.50;41.40;;;;;;4970724;28;20026;-87
2021/07/31 10:04:26;;;;;;;4.15;3.75;;;36.70;40.60;;;;;;4953944;28;20078;-88
2021/07/31 10:06:57;;;;;;;4.78;3.33;;;36.40;39.90;;;;;;4971380;28;20433;-88
2021/07/31 10:09:23;;;;;;;3.50;3.13;;;36.20;40.10;;;;;;4971526;28;20035;-91
2021/07/31 10:11:49;;;;;;;5.43;3.10;;;36.00;40.60;;;;;;4971113;28;20033;-90
2021/07/31 10:14:15;;;;;;;5.05;3.40;;;36.00;40.90;;;;;;4969892;28;20054;-90
2021/07/31 10:16:49;;;;;;;3.40;3.08;;;35.90;40.90;;;;;;4970986;28;20034;-92
2021/07/31 10:19:16;;;;;;;2.90;2.60;;;35.60;40.90;;;;;;4966720;28;20027;-91
2021/07/31 10:21:44;;;;;;;3.20;2.88;;;35.40;41.20;;;;;;4969889;28;20026;-91
2021/07/31 10:24:10;;;;;;;2.63;2.43;;;35.30;41.40;;;;;;4967069;28;20031;-91
2021/07/31 10:26:37;;;;;;;3.65;2.95;;;35.40;42.00;;;;;;4968718;28;20029;-91
2021/07/31 10:29:26;;;;;;;3.33;2.95;;;35.80;41.90;;;;;;4947635;28;20458;-95
2021/07/31 10:31:54;;;;;;;5.20;3.13;;;36.20;40.30;;;;;;4956416;29;20031;-88
2021/07/31 10:34:46;;;;;;;4.18;3.13;;;36.20;41.10;;;;;;4938398;29;20039;-87
2021/07/31 10:37:56;;;;;;;3.63;3.03;;;36.10;40.80;;;;;;4938771;29;20075;-87
2021/07/31 10:40:42;;;;;;;3.30;2.92;;;36.10;41.00;;;;;;4956554;29;20023;-90
2021/07/31 10:43:13;;;;;;;3.65;3.15;;;36.10;40.30;;;;;;4938366;29;20039;-90
2021/07/31 10:45:43;;;;;;;4.78;3.92;;;36.30;41.70;;;;;;4971283;28;20038;-89
2021/07/31 10:48:29;;;;;;;5.32;4.40;;;36.70;41.10;;;;;;4956610;28;20053;-87
2021/07/31 10:50:55;;;;;;;4.22;3.58;;;37.30;38.80;;;;;;4955288;29;20114;-87
2021/07/31 10:53:22;;;;;;;3.78;3.38;;;37.70;41.10;;;;;;4955170;29;20051;-90
2021/07/31 10:55:48;;;;;;;3.47;2.80;;;38.30;40.00;;;;;;4955507;29;20128;-89
2021/07/31 10:58:19;;;;;;;4.00;3.28;;;38.70;39.60;;;;;;4954919;29;20469;-88
2021/07/31 11:00:47;;;;;;;3.70;3.22;;;38.90;39.00;;;;;;4955661;28;20079;-87
2021/07/31 11:03:23;;;;;;;3.80;3.40;;;38.80;38.40;;;;;;4942224;29;20518;-88
2021/07/31 11:06:01;;;;;;;4.20;3.80;;;38.60;38.10;;;;;;4943119;29;20054;-88
2021/07/31 11:08:32;;;;;;;3.70;3.15;;;38.30;37.80;;;;;;4958852;29;20542;-87
2021/07/31 11:11:21;;;;;;;4.32;3.67;;;37.90;37.80;;;;;;4959973;29;20035;-91
2021/07/31 11:13:49;;;;;;;3.85;3.10;;;37.10;37.70;;;;;;4958644;29;20474;-87
2021/07/31 11:16:19;;;;;;;4.93;3.28;;;36.40;38.40;;;;;;4959405;29;20027;-87
2021/07/31 11:18:57;;;;;;;3.95;3.22;;;35.90;38.90;;;;;;4941964;29;20136;-87
2021/07/31 11:21:32;;;;;;;4.55;2.90;;;35.50;39.50;;;;;;4941976;29;20106;-86
2021/07/31 11:24:06;;;;;;;4.10;3.05;;;35.10;40.30;;;;;;4959505;29;20047;-89
2021/07/31 11:26:42;;;;;;;4.25;3.47;;;35.30;41.30;;;;;;4958765;29;20028;-86
2021/07/31 11:29:21;;;;;;;4.28;3.75;;;35.90;41.40;;;;;;4958282;29;20031;-88
2021/07/31 11:32:11;;;;;;;3.83;3.13;;;36.40;40.40;;;;;;4967897;28;20070;-87
2021/07/31 11:34:46;;;;;;;3.75;3.03;;;36.80;40.10;;;;;;4969688;28;20039;-87
2021/07/31 11:37:13;;;;;;;3.72;3.10;;;36.80;39.00;;;;;;4970194;28;20034;-87
2021/07/31 11:39:39;;;;;;;3.55;3.20;;;36.50;39.10;;;;;;4970808;28;20137;-87
2021/07/31 11:42:10;;;;;;;3.50;3.20;;;36.20;39.70;;;;;;4965924;28;20041;-88
2021/07/31 11:44:41;;;;;;;3.75;3.10;;;36.40;40.00;;;;;;4969515;28;20078;-89
2021/07/31 11:47:07;;;;;;;3.33;3.03;;;36.90;39.90;;;;;;4970894;28;20027;-92
2021/07/31 11:49:35;;;;;;;3.97;3.05;;;37.50;39.80;;;;;;4969979;28;20339;-85
2021/07/31 11:52:05;;;;;;;3.17;2.88;;;38.20;39.50;;;;;;4970125;28;20062;-85
2021/07/31 11:54:32;;;;;;;3.30;3.00;;;38.90;39.00;;;;;;4966648;28;20055;-87
2021/07/31 11:56:59;;;;;;;3.60;3.30;;;39.40;37.90;;;;;;4969568;28;20027;-85
2021/07/31 11:59:30;;;;;;;4.13;3.70;;;39.90;37.10;;;;;;4972359;28;20150;-87
2021/07/31 12:01:56;;;;;;;5.28;4.78;;;40.30;36.70;;;;;;4967219;28;20114;-89
2021/07/31 12:04:42;;;;;;;5.40;4.50;;;40.60;36.50;;;;;;4975124;28;20069;-88
2021/07/31 12:07:15;;;;;;;4.22;3.53;;;41.00;34.70;;;;;;4963327;28;20429;-92
2021/07/31 12:09:41;;;;;;;3.75;3.35;;;41.20;35.50;;;;;;4971604;28;20026;-93
2021/07/31 12:12:45;;;;;;;3.78;3.47;;;41.20;35.20;;;;;;4972597;28;20466;-92
2021/07/31 12:15:24;;;;;;;3.08;2.78;;;41.00;33.40;;;;;;4894818;29;20145;-92
2021/07/31 12:17:59;;;;;;;4.70;3.13;;;40.80;33.60;;;;;;4953561;28;20055;-92
2021/07/31 12:20:30;;;;;;;3.88;3.47;;;40.80;33.70;;;;;;4969747;28;20128;-93
2021/07/31 12:22:57;;;;;;;3.45;3.15;;;40.90;34.40;;;;;;4975279;28;20039;-94
2021/07/31 12:25:23;;;;;;;3.45;3.15;;;41.00;34.70;;;;;;4978106;28;20461;-94
2021/07/31 12:28:10;;;;;;;4.50;3.30;;;41.10;34.30;;;;;;4975735;28;20038;-94
2021/07/31 12:30:39;;;;;;;4.70;3.10;;;41.10;33.60;;;;;;4978732;28;20030;-91
2021/07/31 12:33:05;;;;;;;3.13;2.80;;;40.40;33.40;;;;;;4978990;28;20061;-89
2021/07/31 12:35:58;;;;;;;3.40;3.10;;;39.50;34.10;;;;;;4972028;28;20474;-87
2021/07/31 12:38:26;;;;;;;3.50;2.80;;;39.20;35.00;;;;;;4954004;29;20513;-85
2021/07/31 12:40:54;;;;;;;54.75;49.53;;;39.30;35.20;;;;;;4940666;28;20121;-88
2021/07/31 12:43:20;;;;;;;14.63;13.33;;;39.60;35.00;;;;;;4976427;28;20721;-83
2021/07/31 12:45:46;;;;;;;7.68;6.95;;;39.90;35.40;;;;;;4975981;28;20069;-89
2021/07/31 12:48:13;;;;;;;5.00;4.50;;;40.10;34.70;;;;;;4957466;28;20141;-85
2021/07/31 12:50:42;;;;;;;4.28;3.85;;;40.20;34.60;;;;;;4956836;28;20035;-87